sensor_id;sensor_type;location;lat;lon;timestamp;P1;durP1;ratioP1;P2;durP2;ratioP2
58621;SDS011;44389;51.578;5.456;2023-09-07T00:00:18;0.05;;;0.05;;
58621;SDS011;44389;51.578;5.456;2023-09-07T00:02:43;0.10;;;0.10;;
58621;SDS011;44389;51.578;5.456;2023-09-07T00:05:09;0.10;;;0.10;;
58621;SDS011;44389;51.578;5.456;2023-09-07T00:07:34;0.10;;;0.10;;
58621;SDS011;44389;51.578;5.456;2023-09-07T00:10:00;0.10;;;0.10;;
58621;SDS011;44389;51.578;5.456;2023-09-07T00:12:26;0.10;;;0.10;;
58621;SDS011;44389;51.578;5.456;2023-09-07T00:14:52;0.10;;;0.10;;
58621;SDS011;44389;51.578;5.456;2023-09-07T00:17:19;0.10;;;0.10;;
58621;SDS011;44389;51.578;5.456;2023-09-07T00:19:44;0.10;;;0.10;;
58621;SDS011;44389;51.578;5.456;2023-09-07T00:22:12;0.08;;;0.08;;
58621;SDS011;44389;51.578;5.456;2023-09-07T00:24:37;0.10;;;0.10;;
58621;SDS011;44389;51.578;5.456;2023-09-07T00:27:03;0.10;;;0.10;;
58621;SDS011;44389;51.578;5.456;2023-09-07T00:29:30;0.10;;;0.10;;
58621;SDS011;44389;51.578;5.456;2023-09-07T00:31:56;0.10;;;0.10;;
58621;SDS011;44389;51.578;5.456;2023-09-07T00:34:21;0.10;;;0.10;;
58621;SDS011;44389;51.578;5.456;2023-09-07T00:36:46;0.08;;;0.08;;
58621;SDS011;44389;51.578;5.456;2023-09-07T00:39:12;0.10;;;0.10;;
58621;SDS011;44389;51.578;5.456;2023-09-07T00:41:37;0.10;;;0.10;;
58621;SDS011;44389;51.578;5.456;2023-09-07T00:44:03;0.00;;;0.00;;
58621;SDS011;44389;51.578;5.456;2023-09-07T00:46:28;0.10;;;0.10;;
58621;SDS011;44389;51.578;5.456;2023-09-07T00:48:54;0.10;;;0.10;;
58621;SDS011;44389;51.578;5.456;2023-09-07T00:51:20;0.08;;;0.08;;
58621;SDS011;44389;51.578;5.456;2023-09-07T00:53:46;0.00;;;0.00;;
58621;SDS011;44389;51.578;5.456;2023-09-07T00:56:11;0.10;;;0.10;;
58621;SDS011;44389;51.578;5.456;2023-09-07T00:58:37;0.10;;;0.10;;
58621;SDS011;44389;51.578;5.456;2023-09-07T01:01:03;0.03;;;0.03;;
58621;SDS011;44389;51.578;5.456;2023-09-07T01:03:28;0.10;;;0.10;;
58621;SDS011;44389;51.578;5.456;2023-09-07T01:08:42;0.10;;;0.10;;
58621;SDS011;44389;51.578;5.456;2023-09-07T01:11:14;0.10;;;0.10;;
58621;SDS011;44389;51.578;5.456;2023-09-07T01:13:45;0.10;;;0.10;;
58621;SDS011;44389;51.578;5.456;2023-09-07T01:16:11;0.10;;;0.10;;
58621;SDS011;44389;51.578;5.456;2023-09-07T01:18:37;0.00;;;0.00;;
58621;SDS011;44389;51.578;5.456;2023-09-07T01:21:07;0.10;;;0.10;;
58621;SDS011;44389;51.578;5.456;2023-09-07T01:23:36;0.10;;;0.10;;
58621;SDS011;44389;51.578;5.456;2023-09-07T01:26:03;0.10;;;0.10;;
58621;SDS011;44389;51.578;5.456;2023-09-07T01:30:56;0.10;;;0.10;;
58621;SDS011;44389;51.578;5.456;2023-09-07T01:33:22;0.00;;;0.00;;
58621;SDS011;44389;51.578;5.456;2023-09-07T01:35:48;0.10;;;0.10;;
58621;SDS011;44389;51.578;5.456;2023-09-07T01:38:13;0.10;;;0.10;;
58621;SDS011;44389;51.578;5.456;2023-09-07T01:40:38;0.10;;;0.10;;
58621;SDS011;44389;51.578;5.456;2023-09-07T01:43:04;0.00;;;0.00;;
58621;SDS011;44389;51.578;5.456;2023-09-07T01:45:29;0.10;;;0.10;;
58621;SDS011;44389;51.578;5.456;2023-09-07T01:47:54;0.10;;;0.10;;
58621;SDS011;44389;51.578;5.456;2023-09-07T01:50:19;0.10;;;0.10;;
58621;SDS011;44389;51.578;5.456;2023-09-07T01:52:46;0.10;;;0.10;;
58621;SDS011;44389;51.578;5.456;2023-09-07T01:55:13;0.10;;;0.10;;
58621;SDS011;44389;51.578;5.456;2023-09-07T01:57:39;0.10;;;0.10;;
58621;SDS011;44389;51.578;5.456;2023-09-07T02:00:04;0.10;;;0.10;;
58621;SDS011;44389;51.578;5.456;2023-09-07T02:02:30;0.10;;;0.10;;
58621;SDS011;44389;51.578;5.456;2023-09-07T02:04:56;0.00;;;0.00;;
58621;SDS011;44389;51.578;5.456;2023-09-07T02:07:21;0.10;;;0.10;;
58621;SDS011;44389;51.578;5.456;2023-09-07T02:09:46;0.10;;;0.10;;
58621;SDS011;44389;51.578;5.456;2023-09-07T02:12:12;0.10;;;0.10;;
58621;SDS011;44389;51.578;5.456;2023-09-07T02:14:37;0.10;;;0.10;;
58621;SDS011;44389;51.578;5.456;2023-09-07T02:17:02;0.10;;;0.10;;
58621;SDS011;44389;51.578;5.456;2023-09-07T02:19:28;0.10;;;0.10;;
58621;SDS011;44389;51.578;5.456;2023-09-07T02:21:53;0.10;;;0.10;;
58621;SDS011;44389;51.578;5.456;2023-09-07T02:24:19;0.10;;;0.10;;
58621;SDS011;44389;51.578;5.456;2023-09-07T02:26:47;0.10;;;0.10;;
58621;SDS011;44389;51.578;5.456;2023-09-07T02:29:13;0.10;;;0.10;;
58621;SDS011;44389;51.578;5.456;2023-09-07T02:31:39;0.10;;;0.10;;
58621;SDS011;44389;51.578;5.456;2023-09-07T02:34:05;0.00;;;0.00;;
58621;SDS011;44389;51.578;5.456;2023-09-07T02:36:30;0.10;;;0.10;;
58621;SDS011;44389;51.578;5.456;2023-09-07T02:38:56;0.10;;;0.10;;
58621;SDS011;44389;51.578;5.456;2023-09-07T02:41:21;0.10;;;0.10;;
58621;SDS011;44389;51.578;5.456;2023-09-07T02:43:47;0.10;;;0.10;;
58621;SDS011;44389;51.578;5.456;2023-09-07T02:46:12;0.10;;;0.10;;
58621;SDS011;44389;51.578;5.456;2023-09-07T02:48:37;0.03;;;0.03;;
58621;SDS011;44389;51.578;5.456;2023-09-07T02:51:03;0.03;;;0.03;;
58621;SDS011;44389;51.578;5.456;2023-09-07T02:53:28;0.10;;;0.10;;
58621;SDS011;44389;51.578;5.456;2023-09-07T02:55:54;0.10;;;0.10;;
58621;SDS011;44389;51.578;5.456;2023-09-07T02:58:20;0.10;;;0.10;;
58621;SDS011;44389;51.578;5.456;2023-09-07T03:00:46;0.10;;;0.10;;
58621;SDS011;44389;51.578;5.456;2023-09-07T03:03:12;0.10;;;0.10;;
58621;SDS011;44389;51.578;5.456;2023-09-07T03:05:39;0.10;;;0.10;;
58621;SDS011;44389;51.578;5.456;2023-09-07T03:08:05;0.10;;;0.10;;
58621;SDS011;44389;51.578;5.456;2023-09-07T03:10:35;0.10;;;0.10;;
58621;SDS011;44389;51.578;5.456;2023-09-07T03:13:01;0.10;;;0.10;;
58621;SDS011;44389;51.578;5.456;2023-09-07T03:15:26;0.10;;;0.10;;
58621;SDS011;44389;51.578;5.456;2023-09-07T03:17:52;0.03;;;0.03;;
58621;SDS011;44389;51.578;5.456;2023-09-07T03:20:17;0.10;;;0.10;;
58621;SDS011;44389;51.578;5.456;2023-09-07T03:22:43;0.10;;;0.10;;
58621;SDS011;44389;51.578;5.456;2023-09-07T03:25:09;0.10;;;0.10;;
58621;SDS011;44389;51.578;5.456;2023-09-07T03:27:35;0.10;;;0.10;;
58621;SDS011;44389;51.578;5.456;2023-09-07T03:30:01;0.10;;;0.10;;
58621;SDS011;44389;51.578;5.456;2023-09-07T03:32:28;0.10;;;0.10;;
58621;SDS011;44389;51.578;5.456;2023-09-07T03:34:57;0.10;;;0.10;;
58621;SDS011;44389;51.578;5.456;2023-09-07T03:37:23;0.10;;;0.10;;
58621;SDS011;44389;51.578;5.456;2023-09-07T03:39:48;0.10;;;0.10;;
58621;SDS011;44389;51.578;5.456;2023-09-07T03:42:14;0.08;;;0.08;;
58621;SDS011;44389;51.578;5.456;2023-09-07T03:44:39;0.10;;;0.10;;
58621;SDS011;44389;51.578;5.456;2023-09-07T03:47:05;0.10;;;0.10;;
58621;SDS011;44389;51.578;5.456;2023-09-07T03:49:30;0.10;;;0.10;;
58621;SDS011;44389;51.578;5.456;2023-09-07T03:51:59;0.10;;;0.10;;
58621;SDS011;44389;51.578;5.456;2023-09-07T03:54:24;0.10;;;0.10;;
58621;SDS011;44389;51.578;5.456;2023-09-07T03:56:49;0.10;;;0.10;;
58621;SDS011;44389;51.578;5.456;2023-09-07T03:59:14;0.03;;;0.03;;
58621;SDS011;44389;51.578;5.456;2023-09-07T04:01:40;0.10;;;0.10;;
58621;SDS011;44389;51.578;5.456;2023-09-07T04:04:05;0.10;;;0.10;;
58621;SDS011;44389;51.578;5.456;2023-09-07T04:06:31;0.10;;;0.10;;
58621;SDS011;44389;51.578;5.456;2023-09-07T04:08:56;0.10;;;0.10;;
58621;SDS011;44389;51.578;5.456;2023-09-07T04:11:21;0.10;;;0.10;;
58621;SDS011;44389;51.578;5.456;2023-09-07T04:13:46;0.00;;;0.00;;
58621;SDS011;44389;51.578;5.456;2023-09-07T04:16:12;0.10;;;0.10;;
58621;SDS011;44389;51.578;5.456;2023-09-07T04:18:37;0.10;;;0.10;;
58621;SDS011;44389;51.578;5.456;2023-09-07T04:21:06;0.10;;;0.10;;
58621;SDS011;44389;51.578;5.456;2023-09-07T04:23:32;0.10;;;0.10;;
58621;SDS011;44389;51.578;5.456;2023-09-07T04:26:06;0.10;;;0.10;;
58621;SDS011;44389;51.578;5.456;2023-09-07T04:28:37;0.10;;;0.10;;
58621;SDS011;44389;51.578;5.456;2023-09-07T04:31:05;0.10;;;0.10;;
58621;SDS011;44389;51.578;5.456;2023-09-07T04:33:34;0.10;;;0.10;;
58621;SDS011;44389;51.578;5.456;2023-09-07T04:36:13;0.10;;;0.10;;
58621;SDS011;44389;51.578;5.456;2023-09-07T04:38:39;0.10;;;0.10;;
58621;SDS011;44389;51.578;5.456;2023-09-07T04:41:08;0.17;;;0.17;;
58621;SDS011;44389;51.578;5.456;2023-09-07T04:43:37;0.10;;;0.10;;
58621;SDS011;44389;51.578;5.456;2023-09-07T04:46:05;0.10;;;0.10;;
58621;SDS011;44389;51.578;5.456;2023-09-07T04:48:32;0.10;;;0.10;;
58621;SDS011;44389;51.578;5.456;2023-09-07T04:51:04;0.10;;;0.10;;
58621;SDS011;44389;51.578;5.456;2023-09-07T04:53:31;0.10;;;0.10;;
58621;SDS011;44389;51.578;5.456;2023-09-07T04:55:58;0.10;;;0.10;;
58621;SDS011;44389;51.578;5.456;2023-09-07T04:58:23;0.10;;;0.10;;
58621;SDS011;44389;51.578;5.456;2023-09-07T05:00:49;0.10;;;0.10;;
58621;SDS011;44389;51.578;5.456;2023-09-07T05:03:15;0.10;;;0.10;;
58621;SDS011;44389;51.578;5.456;2023-09-07T05:05:44;0.00;;;0.00;;
58621;SDS011;44389;51.578;5.456;2023-09-07T05:08:10;0.10;;;0.10;;
58621;SDS011;44389;51.578;5.456;2023-09-07T05:10:36;0.00;;;0.00;;
58621;SDS011;44389;51.578;5.456;2023-09-07T05:13:01;0.10;;;0.10;;
58621;SDS011;44389;51.578;5.456;2023-09-07T05:15:27;0.10;;;0.10;;
58621;SDS011;44389;51.578;5.456;2023-09-07T05:17:53;0.10;;;0.10;;
58621;SDS011;44389;51.578;5.456;2023-09-07T05:20:18;0.13;;;0.13;;
58621;SDS011;44389;51.578;5.456;2023-09-07T05:22:44;0.10;;;0.10;;
58621;SDS011;44389;51.578;5.456;2023-09-07T05:25:10;0.10;;;0.10;;
58621;SDS011;44389;51.578;5.456;2023-09-07T05:27:36;0.10;;;0.10;;
58621;SDS011;44389;51.578;5.456;2023-09-07T05:30:02;0.10;;;0.10;;
58621;SDS011;44389;51.578;5.456;2023-09-07T05:32:28;0.10;;;0.10;;
58621;SDS011;44389;51.578;5.456;2023-09-07T05:34:53;0.20;;;0.20;;
58621;SDS011;44389;51.578;5.456;2023-09-07T05:37:18;0.10;;;0.10;;
58621;SDS011;44389;51.578;5.456;2023-09-07T05:39:44;0.10;;;0.10;;
58621;SDS011;44389;51.578;5.456;2023-09-07T05:42:09;0.10;;;0.10;;
58621;SDS011;44389;51.578;5.456;2023-09-07T05:44:35;0.10;;;0.10;;
58621;SDS011;44389;51.578;5.456;2023-09-07T05:47:00;0.10;;;0.10;;
58621;SDS011;44389;51.578;5.456;2023-09-07T05:49:27;0.10;;;0.10;;
58621;SDS011;44389;51.578;5.456;2023-09-07T05:51:52;0.10;;;0.10;;
58621;SDS011;44389;51.578;5.456;2023-09-07T05:56:45;0.10;;;0.10;;
58621;SDS011;44389;51.578;5.456;2023-09-07T05:59:11;0.10;;;0.10;;
58621;SDS011;44389;51.578;5.456;2023-09-07T06:01:38;0.10;;;0.10;;
58621;SDS011;44389;51.578;5.456;2023-09-07T06:04:05;0.10;;;0.10;;
58621;SDS011;44389;51.578;5.456;2023-09-07T06:06:31;0.10;;;0.10;;
58621;SDS011;44389;51.578;5.456;2023-09-07T06:08:56;0.10;;;0.10;;
58621;SDS011;44389;51.578;5.456;2023-09-07T06:11:23;0.10;;;0.10;;
58621;SDS011;44389;51.578;5.456;2023-09-07T06:13:48;0.10;;;0.10;;
58621;SDS011;44389;51.578;5.456;2023-09-07T06:16:14;0.10;;;0.10;;
58621;SDS011;44389;51.578;5.456;2023-09-07T06:18:39;0.10;;;0.10;;
58621;SDS011;44389;51.578;5.456;2023-09-07T06:21:04;0.10;;;0.10;;
58621;SDS011;44389;51.578;5.456;2023-09-07T06:23:31;0.10;;;0.10;;
58621;SDS011;44389;51.578;5.456;2023-09-07T06:25:56;0.10;;;0.10;;
58621;SDS011;44389;51.578;5.456;2023-09-07T06:28:22;0.10;;;0.10;;
58621;SDS011;44389;51.578;5.456;2023-09-07T06:30:47;0.10;;;0.10;;
58621;SDS011;44389;51.578;5.456;2023-09-07T06:33:13;0.10;;;0.10;;
58621;SDS011;44389;51.578;5.456;2023-09-07T06:35:38;0.10;;;0.10;;
58621;SDS011;44389;51.578;5.456;2023-09-07T06:38:04;0.10;;;0.10;;
58621;SDS011;44389;51.578;5.456;2023-09-07T06:40:29;0.10;;;0.10;;
58621;SDS011;44389;51.578;5.456;2023-09-07T06:42:54;0.10;;;0.10;;
58621;SDS011;44389;51.578;5.456;2023-09-07T06:45:21;0.10;;;0.10;;
58621;SDS011;44389;51.578;5.456;2023-09-07T06:47:49;0.10;;;0.10;;
58621;SDS011;44389;51.578;5.456;2023-09-07T06:50:15;0.10;;;0.10;;
58621;SDS011;44389;51.578;5.456;2023-09-07T06:52:40;0.13;;;0.13;;
58621;SDS011;44389;51.578;5.456;2023-09-07T06:55:06;0.00;;;0.00;;
58621;SDS011;44389;51.578;5.456;2023-09-07T06:57:31;0.10;;;0.10;;
58621;SDS011;44389;51.578;5.456;2023-09-07T06:59:58;0.10;;;0.10;;
58621;SDS011;44389;51.578;5.456;2023-09-07T07:02:24;0.10;;;0.10;;
58621;SDS011;44389;51.578;5.456;2023-09-07T07:04:49;0.10;;;0.10;;
58621;SDS011;44389;51.578;5.456;2023-09-07T07:07:15;0.10;;;0.10;;
58621;SDS011;44389;51.578;5.456;2023-09-07T07:09:40;0.10;;;0.10;;
58621;SDS011;44389;51.578;5.456;2023-09-07T07:12:05;0.10;;;0.10;;
58621;SDS011;44389;51.578;5.456;2023-09-07T07:14:31;0.10;;;0.10;;
58621;SDS011;44389;51.578;5.456;2023-09-07T07:16:56;0.10;;;0.10;;
58621;SDS011;44389;51.578;5.456;2023-09-07T07:19:21;0.10;;;0.10;;
58621;SDS011;44389;51.578;5.456;2023-09-07T07:21:47;0.10;;;0.10;;
58621;SDS011;44389;51.578;5.456;2023-09-07T07:24:13;0.10;;;0.10;;
58621;SDS011;44389;51.578;5.456;2023-09-07T07:26:39;0.10;;;0.10;;
58621;SDS011;44389;51.578;5.456;2023-09-07T07:29:04;0.10;;;0.10;;
58621;SDS011;44389;51.578;5.456;2023-09-07T07:31:31;0.10;;;0.10;;
58621;SDS011;44389;51.578;5.456;2023-09-07T07:33:56;0.10;;;0.10;;
58621;SDS011;44389;51.578;5.456;2023-09-07T07:36:24;0.00;;;0.00;;
58621;SDS011;44389;51.578;5.456;2023-09-07T07:38:50;0.10;;;0.10;;
58621;SDS011;44389;51.578;5.456;2023-09-07T07:41:15;0.00;;;0.00;;
58621;SDS011;44389;51.578;5.456;2023-09-07T07:43:40;0.10;;;0.10;;
58621;SDS011;44389;51.578;5.456;2023-09-07T07:46:05;0.00;;;0.00;;
58621;SDS011;44389;51.578;5.456;2023-09-07T07:48:33;0.00;;;0.00;;
58621;SDS011;44389;51.578;5.456;2023-09-07T07:51:02;0.10;;;0.10;;
58621;SDS011;44389;51.578;5.456;2023-09-07T07:53:28;0.08;;;0.08;;
58621;SDS011;44389;51.578;5.456;2023-09-07T07:55:53;0.00;;;0.00;;
58621;SDS011;44389;51.578;5.456;2023-09-07T07:58:21;0.00;;;0.00;;
58621;SDS011;44389;51.578;5.456;2023-09-07T08:00:46;0.05;;;0.05;;
58621;SDS011;44389;51.578;5.456;2023-09-07T08:03:12;0.10;;;0.10;;
58621;SDS011;44389;51.578;5.456;2023-09-07T08:05:38;0.10;;;0.10;;
58621;SDS011;44389;51.578;5.456;2023-09-07T08:08:04;0.00;;;0.00;;
58621;SDS011;44389;51.578;5.456;2023-09-07T08:10:33;0.00;;;0.00;;
58621;SDS011;44389;51.578;5.456;2023-09-07T08:12:59;0.00;;;0.00;;
58621;SDS011;44389;51.578;5.456;2023-09-07T08:15:24;0.10;;;0.00;;
58621;SDS011;44389;51.578;5.456;2023-09-07T08:17:50;0.10;;;0.10;;
58621;SDS011;44389;51.578;5.456;2023-09-07T08:20:16;0.10;;;0.00;;
58621;SDS011;44389;51.578;5.456;2023-09-07T08:22:41;0.00;;;0.00;;
58621;SDS011;44389;51.578;5.456;2023-09-07T08:25:08;0.00;;;0.00;;
58621;SDS011;44389;51.578;5.456;2023-09-07T08:27:33;0.00;;;0.00;;
58621;SDS011;44389;51.578;5.456;2023-09-07T08:29:59;0.00;;;0.00;;
58621;SDS011;44389;51.578;5.456;2023-09-07T08:32:24;0.00;;;0.00;;
58621;SDS011;44389;51.578;5.456;2023-09-07T08:34:50;0.00;;;0.00;;
58621;SDS011;44389;51.578;5.456;2023-09-07T08:37:15;0.00;;;0.00;;
58621;SDS011;44389;51.578;5.456;2023-09-07T08:39:44;0.00;;;0.00;;
58621;SDS011;44389;51.578;5.456;2023-09-07T08:42:09;0.00;;;0.00;;
58621;SDS011;44389;51.578;5.456;2023-09-07T08:44:36;0.00;;;0.00;;
58621;SDS011;44389;51.578;5.456;2023-09-07T08:47:02;0.00;;;0.00;;
58621;SDS011;44389;51.578;5.456;2023-09-07T08:49:29;0.00;;;0.00;;
58621;SDS011;44389;51.578;5.456;2023-09-07T08:51:57;0.00;;;0.00;;
58621;SDS011;44389;51.578;5.456;2023-09-07T08:54:24;0.00;;;0.00;;
58621;SDS011;44389;51.578;5.456;2023-09-07T08:56:51;0.00;;;0.00;;
58621;SDS011;44389;51.578;5.456;2023-09-07T08:59:16;0.00;;;0.00;;
58621;SDS011;44389;51.578;5.456;2023-09-07T09:01:41;0.00;;;0.00;;
58621;SDS011;44389;51.578;5.456;2023-09-07T09:04:07;0.08;;;0.08;;
58621;SDS011;44389;51.578;5.456;2023-09-07T09:06:33;0.00;;;0.00;;
58621;SDS011;44389;51.578;5.456;2023-09-07T09:08:59;0.00;;;0.00;;
58621;SDS011;44389;51.578;5.456;2023-09-07T09:11:25;0.00;;;0.00;;
58621;SDS011;44389;51.578;5.456;2023-09-07T09:13:51;0.00;;;0.00;;
58621;SDS011;44389;51.578;5.456;2023-09-07T09:16:18;0.00;;;0.00;;
58621;SDS011;44389;51.578;5.456;2023-09-07T09:18:51;0.00;;;0.00;;
58621;SDS011;44389;51.578;5.456;2023-09-07T09:21:21;0.00;;;0.00;;
58621;SDS011;44389;51.578;5.456;2023-09-07T09:23:49;0.00;;;0.00;;
58621;SDS011;44389;51.578;5.456;2023-09-07T09:26:15;0.00;;;0.00;;
58621;SDS011;44389;51.578;5.456;2023-09-07T09:28:41;0.00;;;0.00;;
58621;SDS011;44389;51.578;5.456;2023-09-07T09:31:10;0.00;;;0.00;;
58621;SDS011;44389;51.578;5.456;2023-09-07T09:33:37;0.00;;;0.00;;
58621;SDS011;44389;51.578;5.456;2023-09-07T09:36:04;0.00;;;0.00;;
58621;SDS011;44389;51.578;5.456;2023-09-07T09:38:31;0.00;;;0.00;;
58621;SDS011;44389;51.578;5.456;2023-09-07T09:40:57;0.00;;;0.00;;
58621;SDS011;44389;51.578;5.456;2023-09-07T09:43:23;0.00;;;0.00;;
58621;SDS011;44389;51.578;5.456;2023-09-07T09:45:50;0.00;;;0.00;;
58621;SDS011;44389;51.578;5.456;2023-09-07T09:48:17;0.00;;;0.00;;
58621;SDS011;44389;51.578;5.456;2023-09-07T09:50:44;0.00;;;0.00;;
58621;SDS011;44389;51.578;5.456;2023-09-07T09:53:11;0.00;;;0.00;;
58621;SDS011;44389;51.578;5.456;2023-09-07T09:55:40;0.00;;;0.00;;
58621;SDS011;44389;51.578;5.456;2023-09-07T09:58:06;0.00;;;0.00;;
58621;SDS011;44389;51.578;5.456;2023-09-07T10:00:31;0.00;;;0.00;;
58621;SDS011;44389;51.578;5.456;2023-09-07T10:05:37;0.00;;;0.00;;
58621;SDS011;44389;51.578;5.456;2023-09-07T10:08:04;0.00;;;0.00;;
58621;SDS011;44389;51.578;5.456;2023-09-07T10:10:40;0.00;;;0.00;;
58621;SDS011;44389;51.578;5.456;2023-09-07T10:13:07;0.00;;;0.00;;
58621;SDS011;44389;51.578;5.456;2023-09-07T10:15:32;0.00;;;0.00;;
58621;SDS011;44389;51.578;5.456;2023-09-07T10:23:33;0.00;;;0.00;;
58621;SDS011;44389;51.578;5.456;2023-09-07T10:26:02;0.00;;;0.00;;
58621;SDS011;44389;51.578;5.456;2023-09-07T10:28:32;0.00;;;0.00;;
58621;SDS011;44389;51.578;5.456;2023-09-07T10:31:07;0.00;;;0.00;;
58621;SDS011;44389;51.578;5.456;2023-09-07T10:33:38;0.00;;;0.00;;
58621;SDS011;44389;51.578;5.456;2023-09-07T10:36:04;0.00;;;0.00;;
58621;SDS011;44389;51.578;5.456;2023-09-07T10:38:31;0.00;;;0.00;;
58621;SDS011;44389;51.578;5.456;2023-09-07T10:41:01;0.00;;;0.00;;
58621;SDS011;44389;51.578;5.456;2023-09-07T10:43:28;0.00;;;0.00;;
58621;SDS011;44389;51.578;5.456;2023-09-07T10:48:21;0.00;;;0.00;;
58621;SDS011;44389;51.578;5.456;2023-09-07T10:50:47;0.00;;;0.00;;
58621;SDS011;44389;51.578;5.456;2023-09-07T10:53:13;0.00;;;0.00;;
58621;SDS011;44389;51.578;5.456;2023-09-07T10:55:39;0.00;;;0.00;;
58621;SDS011;44389;51.578;5.456;2023-09-07T10:58:05;0.00;;;0.00;;
58621;SDS011;44389;51.578;5.456;2023-09-07T11:00:31;0.00;;;0.00;;
58621;SDS011;44389;51.578;5.456;2023-09-07T11:02:57;0.00;;;0.00;;
58621;SDS011;44389;51.578;5.456;2023-09-07T11:05:22;0.00;;;0.00;;
58621;SDS011;44389;51.578;5.456;2023-09-07T11:07:48;0.00;;;0.00;;
58621;SDS011;44389;51.578;5.456;2023-09-07T11:10:14;0.00;;;0.00;;
58621;SDS011;44389;51.578;5.456;2023-09-07T11:12:39;0.00;;;0.00;;
58621;SDS011;44389;51.578;5.456;2023-09-07T11:15:08;0.00;;;0.00;;
58621;SDS011;44389;51.578;5.456;2023-09-07T11:17:36;0.00;;;0.00;;
58621;SDS011;44389;51.578;5.456;2023-09-07T11:20:03;0.00;;;0.00;;
58621;SDS011;44389;51.578;5.456;2023-09-07T11:22:31;0.00;;;0.00;;
58621;SDS011;44389;51.578;5.456;2023-09-07T11:24:57;0.07;;;0.00;;
58621;SDS011;44389;51.578;5.456;2023-09-07T11:27:28;0.00;;;0.00;;
58621;SDS011;44389;51.578;5.456;2023-09-07T11:29:55;0.00;;;0.00;;
58621;SDS011;44389;51.578;5.456;2023-09-07T11:32:20;0.00;;;0.00;;
58621;SDS011;44389;51.578;5.456;2023-09-07T11:34:50;0.00;;;0.00;;
58621;SDS011;44389;51.578;5.456;2023-09-07T11:37:17;0.00;;;0.00;;
58621;SDS011;44389;51.578;5.456;2023-09-07T11:39:47;0.00;;;0.00;;
58621;SDS011;44389;51.578;5.456;2023-09-07T11:42:13;0.00;;;0.00;;
58621;SDS011;44389;51.578;5.456;2023-09-07T11:44:38;0.00;;;0.00;;
58621;SDS011;44389;51.578;5.456;2023-09-07T11:47:03;0.00;;;0.00;;
58621;SDS011;44389;51.578;5.456;2023-09-07T11:49:29;0.00;;;0.00;;
58621;SDS011;44389;51.578;5.456;2023-09-07T11:51:56;0.00;;;0.00;;
58621;SDS011;44389;51.578;5.456;2023-09-07T11:54:22;0.00;;;0.00;;
58621;SDS011;44389;51.578;5.456;2023-09-07T11:56:48;0.00;;;0.00;;
58621;SDS011;44389;51.578;5.456;2023-09-07T11:59:13;0.00;;;0.00;;
58621;SDS011;44389;51.578;5.456;2023-09-07T12:01:39;0.00;;;0.00;;
58621;SDS011;44389;51.578;5.456;2023-09-07T12:04:07;0.00;;;0.00;;
58621;SDS011;44389;51.578;5.456;2023-09-07T12:06:32;0.00;;;0.00;;
58621;SDS011;44389;51.578;5.456;2023-09-07T12:09:01;0.00;;;0.00;;
58621;SDS011;44389;51.578;5.456;2023-09-07T12:11:28;0.00;;;0.00;;
58621;SDS011;44389;51.578;5.456;2023-09-07T12:13:55;0.00;;;0.00;;
58621;SDS011;44389;51.578;5.456;2023-09-07T12:16:21;0.00;;;0.00;;
58621;SDS011;44389;51.578;5.456;2023-09-07T12:18:46;0.00;;;0.00;;
58621;SDS011;44389;51.578;5.456;2023-09-07T12:21:12;0.00;;;0.00;;
58621;SDS011;44389;51.578;5.456;2023-09-07T12:23:37;0.00;;;0.00;;
58621;SDS011;44389;51.578;5.456;2023-09-07T12:26:02;0.00;;;0.00;;
58621;SDS011;44389;51.578;5.456;2023-09-07T12:28:29;0.00;;;0.00;;
58621;SDS011;44389;51.578;5.456;2023-09-07T12:30:56;0.00;;;0.00;;
58621;SDS011;44389;51.578;5.456;2023-09-07T12:33:22;0.00;;;0.00;;
58621;SDS011;44389;51.578;5.456;2023-09-07T12:35:48;0.00;;;0.00;;
58621;SDS011;44389;51.578;5.456;2023-09-07T12:38:13;0.00;;;0.00;;
58621;SDS011;44389;51.578;5.456;2023-09-07T12:40:42;0.00;;;0.00;;
58621;SDS011;44389;51.578;5.456;2023-09-07T12:43:07;0.00;;;0.00;;
58621;SDS011;44389;51.578;5.456;2023-09-07T12:45:33;0.00;;;0.00;;
58621;SDS011;44389;51.578;5.456;2023-09-07T12:47:58;0.00;;;0.00;;
58621;SDS011;44389;51.578;5.456;2023-09-07T12:50:25;0.00;;;0.00;;
58621;SDS011;44389;51.578;5.456;2023-09-07T12:52:51;0.00;;;0.00;;
58621;SDS011;44389;51.578;5.456;2023-09-07T12:55:16;0.00;;;0.00;;
58621;SDS011;44389;51.578;5.456;2023-09-07T12:57:43;0.00;;;0.00;;
58621;SDS011;44389;51.578;5.456;2023-09-07T13:00:09;0.00;;;0.00;;
58621;SDS011;44389;51.578;5.456;2023-09-07T13:02:35;0.00;;;0.00;;
58621;SDS011;44389;51.578;5.456;2023-09-07T13:05:01;0.00;;;0.00;;
58621;SDS011;44389;51.578;5.456;2023-09-07T13:07:30;0.00;;;0.00;;
58621;SDS011;44389;51.578;5.456;2023-09-07T13:09:57;0.00;;;0.00;;
58621;SDS011;44389;51.578;5.456;2023-09-07T13:12:22;0.00;;;0.00;;
58621;SDS011;44389;51.578;5.456;2023-09-07T13:14:47;0.00;;;0.00;;
58621;SDS011;44389;51.578;5.456;2023-09-07T13:17:13;0.00;;;0.00;;
58621;SDS011;44389;51.578;5.456;2023-09-07T13:19:42;0.00;;;0.00;;
58621;SDS011;44389;51.578;5.456;2023-09-07T13:22:08;0.00;;;0.00;;
58621;SDS011;44389;51.578;5.456;2023-09-07T13:24:34;0.00;;;0.00;;
58621;SDS011;44389;51.578;5.456;2023-09-07T13:26:59;0.00;;;0.00;;
58621;SDS011;44389;51.578;5.456;2023-09-07T13:29:25;0.00;;;0.00;;
58621;SDS011;44389;51.578;5.456;2023-09-07T13:34:17;0.00;;;0.00;;
58621;SDS011;44389;51.578;5.456;2023-09-07T13:36:43;0.00;;;0.00;;
58621;SDS011;44389;51.578;5.456;2023-09-07T13:39:08;0.00;;;0.00;;
58621;SDS011;44389;51.578;5.456;2023-09-07T13:41:33;0.00;;;0.00;;
58621;SDS011;44389;51.578;5.456;2023-09-07T13:43:59;0.00;;;0.00;;
58621;SDS011;44389;51.578;5.456;2023-09-07T13:46:25;0.00;;;0.00;;
58621;SDS011;44389;51.578;5.456;2023-09-07T13:48:50;0.00;;;0.00;;
58621;SDS011;44389;51.578;5.456;2023-09-07T13:51:16;0.00;;;0.00;;
58621;SDS011;44389;51.578;5.456;2023-09-07T13:53:41;0.00;;;0.00;;
58621;SDS011;44389;51.578;5.456;2023-09-07T13:56:06;0.00;;;0.00;;
58621;SDS011;44389;51.578;5.456;2023-09-07T13:58:32;0.00;;;0.00;;
58621;SDS011;44389;51.578;5.456;2023-09-07T14:00:57;0.00;;;0.00;;
58621;SDS011;44389;51.578;5.456;2023-09-07T14:03:22;0.00;;;0.00;;
58621;SDS011;44389;51.578;5.456;2023-09-07T14:05:48;0.00;;;0.00;;
58621;SDS011;44389;51.578;5.456;2023-09-07T14:08:13;0.00;;;0.00;;
58621;SDS011;44389;51.578;5.456;2023-09-07T14:10:39;0.00;;;0.00;;
58621;SDS011;44389;51.578;5.456;2023-09-07T14:13:04;0.00;;;0.00;;
58621;SDS011;44389;51.578;5.456;2023-09-07T14:15:30;0.00;;;0.00;;
58621;SDS011;44389;51.578;5.456;2023-09-07T14:17:56;0.00;;;0.00;;
58621;SDS011;44389;51.578;5.456;2023-09-07T14:20:21;0.00;;;0.00;;
58621;SDS011;44389;51.578;5.456;2023-09-07T14:22:47;0.00;;;0.00;;
58621;SDS011;44389;51.578;5.456;2023-09-07T14:25:12;0.00;;;0.00;;
58621;SDS011;44389;51.578;5.456;2023-09-07T14:27:38;0.00;;;0.00;;
58621;SDS011;44389;51.578;5.456;2023-09-07T14:30:04;0.00;;;0.00;;
58621;SDS011;44389;51.578;5.456;2023-09-07T14:32:30;0.00;;;0.00;;
58621;SDS011;44389;51.578;5.456;2023-09-07T14:34:55;0.00;;;0.00;;
58621;SDS011;44389;51.578;5.456;2023-09-07T14:37:20;0.00;;;0.00;;
58621;SDS011;44389;51.578;5.456;2023-09-07T14:39:46;0.00;;;0.00;;
58621;SDS011;44389;51.578;5.456;2023-09-07T14:42:14;0.00;;;0.00;;
58621;SDS011;44389;51.578;5.456;2023-09-07T14:44:42;0.00;;;0.00;;
58621;SDS011;44389;51.578;5.456;2023-09-07T14:47:07;0.00;;;0.00;;
58621;SDS011;44389;51.578;5.456;2023-09-07T14:49:35;0.00;;;0.00;;
58621;SDS011;44389;51.578;5.456;2023-09-07T14:52:00;0.00;;;0.00;;
58621;SDS011;44389;51.578;5.456;2023-09-07T14:54:26;0.00;;;0.00;;
58621;SDS011;44389;51.578;5.456;2023-09-07T14:56:51;0.00;;;0.00;;
58621;SDS011;44389;51.578;5.456;2023-09-07T14:59:16;0.00;;;0.00;;
58621;SDS011;44389;51.578;5.456;2023-09-07T15:01:42;0.00;;;0.00;;